Time;durP1;ratioP1;P1;durP2;ratioP2;P2;SDS_P1;SDS_P2;PMS_P1;PMS_P2;Temp;Humidity;BMP_temperature;BMP_pressure;BME280_temperature;BME280_humidity;BME280_pressure;Samples;Min_cycle;Max_cycle;Signal;HPM_P1;HPM_P2
2022/01/18 00:01:21;;;;;;;17.90;5.00;;;;;;;;;;6137300;28;20242;-64
2022/01/18 00:04:42;;;;;;;23.17;6.73;;;;;;;;;;6134358;28;20609;-63
2022/01/18 00:08:02;;;;;;;12.97;5.20;;;;;;;;;;6136428;28;20344;-64
2022/01/18 00:11:25;;;;;;;21.13;5.47;;;;;;;;;;6134008;28;20235;-64
2022/01/18 00:15:05;;;;;;;11.27;4.57;;;;;;;;;;6127280;28;20786;-62
2022/01/18 00:18:27;;;;;;;24.80;6.57;;;;;;;;;;6123128;28;20232;-63
2022/01/18 00:22:05;;;;;;;16.63;4.77;;;;;;;;;;6129972;28;20622;-63
2022/01/18 00:25:25;;;;;;;19.83;5.57;;;;;;;;;;6131828;28;20231;-63
2022/01/18 00:28:51;;;;;;;17.77;5.33;;;;;;;;;;6128862;28;20231;-63
2022/01/18 00:32:21;;;;;;;19.07;5.73;;;;;;;;;;6138608;28;20314;-64
2022/01/18 00:35:43;;;;;;;20.40;4.37;;;;;;;;;;6132520;28;20231;-63
2022/01/18 00:39:05;;;;;;;21.07;5.93;;;;;;;;;;6132532;28;20559;-62
2022/01/18 00:42:26;;;;;;;18.43;5.07;;;;;;;;;;6132670;28;20610;-63
2022/01/18 00:45:46;;;;;;;22.87;5.70;;;;;;;;;;6137658;28;20234;-64
2022/01/18 00:49:10;;;;;;;12.37;3.40;;;;;;;;;;6132620;28;20302;-63
2022/01/18 00:52:33;;;;;;;13.03;5.50;;;;;;;;;;6131381;28;20261;-62
2022/01/18 00:56:07;;;;;;;11.53;4.00;;;;;;;;;;6130922;28;20244;-63
2022/01/18 00:59:27;;;;;;;13.03;3.37;;;;;;;;;;6132942;28;20235;-63
2022/01/18 01:02:48;;;;;;;17.90;4.43;;;;;;;;;;6133220;28;20232;-62
2022/01/18 01:06:10;;;;;;;9.07;3.50;;;;;;;;;;6129272;28;20511;-63
2022/01/18 01:09:30;;;;;;;13.83;3.90;;;;;;;;;;6129584;28;20263;-63
2022/01/18 01:12:51;;;;;;;11.43;3.70;;;;;;;;;;6127591;28;20651;-63
2022/01/18 01:16:33;;;;;;;15.70;5.07;;;;;;;;;;6134616;28;20227;-64
2022/01/18 01:34:41;;;;;;;9.07;2.67;;;;;;;;;;6125824;28;20239;-64
2022/01/18 01:45:23;;;;;;;10.83;3.50;;;;;;;;;;6127588;28;20330;-63
2022/01/18 01:48:45;;;;;;;11.40;4.07;;;;;;;;;;6135068;28;20499;-64
2022/01/18 01:52:07;;;;;;;12.47;3.73;;;;;;;;;;6124997;28;20228;-63
2022/01/18 01:55:28;;;;;;;9.33;2.73;;;;;;;;;;6108145;28;20625;-64
2022/01/18 01:58:50;;;;;;;9.37;2.90;;;;;;;;;;6132059;28;20235;-64
2022/01/18 02:02:10;;;;;;;13.63;2.87;;;;;;;;;;6130534;28;20256;-63
2022/01/18 02:05:30;;;;;;;7.87;3.30;;;;;;;;;;6133802;28;20239;-62
2022/01/18 02:08:51;;;;;;;11.10;3.70;;;;;;;;;;6131902;28;20258;-64
2022/01/18 02:12:12;;;;;;;10.13;3.13;;;;;;;;;;6128184;28;20269;-62
2022/01/18 02:15:38;;;;;;;5.40;3.27;;;;;;;;;;6127631;28;20234;-64
2022/01/18 02:22:39;;;;;;;7.47;3.03;;;;;;;;;;6119673;28;20275;-63
2022/01/18 02:25:59;;;;;;;7.07;2.37;;;;;;;;;;6127930;28;20266;-63
2022/01/18 02:29:20;;;;;;;8.40;4.77;;;;;;;;;;6135635;28;20231;-62
2022/01/18 02:32:41;;;;;;;6.17;1.73;;;;;;;;;;6128273;28;20231;-62
2022/01/18 02:36:06;;;;;;;5.20;1.97;;;;;;;;;;6134661;28;20330;-63
2022/01/18 02:39:28;;;;;;;3.20;1.70;;;;;;;;;;6115048;28;20228;-62
2022/01/18 02:42:57;;;;;;;4.30;1.80;;;;;;;;;;6104430;28;20507;-63
2022/01/18 02:46:18;;;;;;;5.80;2.17;;;;;;;;;;6115370;28;20537;-63
2022/01/18 02:49:39;;;;;;;6.40;2.00;;;;;;;;;;6115967;28;20224;-64
2022/01/18 02:52:59;;;;;;;7.20;2.37;;;;;;;;;;6125112;28;20228;-62
2022/01/18 02:56:21;;;;;;;5.57;2.20;;;;;;;;;;6114656;28;20239;-63
2022/01/18 02:59:47;;;;;;;5.50;2.23;;;;;;;;;;6127720;28;20314;-63
2022/01/18 03:03:14;;;;;;;5.47;1.67;;;;;;;;;;6132753;28;20239;-63
2022/01/18 03:06:34;;;;;;;4.60;1.83;;;;;;;;;;6129454;28;20322;-63
2022/01/18 03:09:55;;;;;;;5.57;2.03;;;;;;;;;;6132043;28;20242;-63
2022/01/18 03:13:18;;;;;;;10.60;2.57;;;;;;;;;;6129986;28;20232;-63
2022/01/18 03:16:38;;;;;;;6.20;1.63;;;;;;;;;;6127257;28;20231;-63
2022/01/18 03:19:59;;;;;;;8.87;2.13;;;;;;;;;;6133794;28;20235;-62
2022/01/18 03:23:22;;;;;;;10.30;2.53;;;;;;;;;;6132137;28;20227;-64
2022/01/18 03:30:21;;;;;;;6.43;1.77;;;;;;;;;;6131122;28;20223;-63
2022/01/18 03:33:42;;;;;;;5.50;2.23;;;;;;;;;;6130047;28;20227;-63
2022/01/18 03:37:03;;;;;;;6.50;2.33;;;;;;;;;;6128406;28;20234;-63
2022/01/18 03:40:24;;;;;;;4.03;1.47;;;;;;;;;;6127735;28;20353;-63
2022/01/18 03:43:45;;;;;;;5.60;1.40;;;;;;;;;;6132852;28;21926;-62
2022/01/18 03:47:07;;;;;;;5.30;1.63;;;;;;;;;;6127878;28;20231;-63
2022/01/18 03:50:27;;;;;;;3.83;1.60;;;;;;;;;;6126397;28;20231;-63
2022/01/18 03:53:51;;;;;;;3.23;1.80;;;;;;;;;;6124286;28;20232;-63
2022/01/18 03:57:12;;;;;;;2.47;1.13;;;;;;;;;;6129281;28;20767;-64
2022/01/18 04:00:33;;;;;;;4.73;1.93;;;;;;;;;;6126360;28;20239;-63
2022/01/18 04:03:55;;;;;;;6.43;1.50;;;;;;;;;;6124970;28;20235;-62
2022/01/18 04:07:15;;;;;;;3.90;1.70;;;;;;;;;;6128408;28;20333;-64
2022/01/18 04:10:36;;;;;;;3.37;1.53;;;;;;;;;;6125896;28;20227;-63
2022/01/18 04:13:56;;;;;;;4.90;1.73;;;;;;;;;;6127386;28;20235;-64
2022/01/18 04:17:31;;;;;;;8.20;1.83;;;;;;;;;;6129524;28;20243;-64
2022/01/18 04:28:16;;;;;;;3.57;1.87;;;;;;;;;;6126139;28;20593;-63
2022/01/18 04:31:37;;;;;;;4.07;1.43;;;;;;;;;;6120619;28;20924;-63
2022/01/18 04:34:57;;;;;;;5.27;1.97;;;;;;;;;;6114836;28;20246;-63
2022/01/18 04:38:19;;;;;;;4.57;1.57;;;;;;;;;;6127513;28;20231;-63
2022/01/18 04:41:40;;;;;;;3.67;1.70;;;;;;;;;;6133662;28;20232;-64
2022/01/18 04:48:37;;;;;;;4.97;1.60;;;;;;;;;;6131131;28;20235;-64
2022/01/18 04:51:57;;;;;;;8.17;2.40;;;;;;;;;;6136750;28;20231;-62
2022/01/18 04:55:19;;;;;;;4.93;1.60;;;;;;;;;;6134249;28;20235;-63
2022/01/18 04:58:40;;;;;;;5.17;2.60;;;;;;;;;;6138016;28;20246;-63
2022/01/18 05:02:01;;;;;;;7.43;2.30;;;;;;;;;;6133178;28;20267;-62
2022/01/18 05:05:24;;;;;;;19.00;14.40;;;;;;;;;;6123352;28;20224;-61
2022/01/18 05:08:45;;;;;;;12.20;7.77;;;;;;;;;;6133819;28;20654;-64
2022/01/18 05:12:14;;;;;;;6.47;3.37;;;;;;;;;;6136771;28;20239;-63
2022/01/18 05:15:42;;;;;;;8.60;1.97;;;;;;;;;;6132967;28;20246;-64
2022/01/18 05:19:13;;;;;;;4.27;1.40;;;;;;;;;;6132708;28;20680;-63
2022/01/18 05:26:12;;;;;;;8.63;2.07;;;;;;;;;;6141719;28;21154;-64
2022/01/18 05:29:34;;;;;;;7.53;1.83;;;;;;;;;;6117579;28;20231;-63
2022/01/18 05:32:54;;;;;;;2.90;1.40;;;;;;;;;;6124178;28;20318;-64
2022/01/18 05:36:15;;;;;;;9.40;2.40;;;;;;;;;;6117250;28;20251;-63
2022/01/18 05:39:35;;;;;;;4.47;2.10;;;;;;;;;;6119944;28;20238;-63
2022/01/18 05:42:56;;;;;;;7.53;1.73;;;;;;;;;;6122639;28;20862;-63
2022/01/18 05:46:18;;;;;;;5.17;1.53;;;;;;;;;;6131853;28;20238;-64
2022/01/18 05:49:39;;;;;;;3.47;2.00;;;;;;;;;;6130108;28;20232;-63
2022/01/18 05:52:59;;;;;;;4.40;2.43;;;;;;;;;;6130485;28;20316;-64
2022/01/18 05:56:20;;;;;;;17.70;3.87;;;;;;;;;;6128911;28;20531;-63
2022/01/18 05:59:44;;;;;;;5.77;2.40;;;;;;;;;;6132829;28;20231;-64
2022/01/18 06:03:13;;;;;;;7.97;2.90;;;;;;;;;;6125233;28;20234;-62
2022/01/18 06:06:53;;;;;;;5.80;2.73;;;;;;;;;;6135345;28;20234;-63
2022/01/18 06:10:13;;;;;;;8.90;4.47;;;;;;;;;;6117208;28;20231;-64
2022/01/18 06:13:34;;;;;;;12.97;4.83;;;;;;;;;;6125753;28;20279;-62
2022/01/18 06:16:54;;;;;;;8.57;4.07;;;;;;;;;;6131280;28;20285;-62
2022/01/18 06:20:16;;;;;;;11.97;5.57;;;;;;;;;;6121589;28;20511;-63
2022/01/18 06:23:36;;;;;;;15.57;9.10;;;;;;;;;;6135037;28;20250;-63
2022/01/18 06:26:57;;;;;;;15.10;9.27;;;;;;;;;;6107738;28;20235;-63
2022/01/18 06:30:18;;;;;;;12.23;8.70;;;;;;;;;;6130032;28;20244;-64
2022/01/18 06:33:39;;;;;;;14.13;6.57;;;;;;;;;;6133697;28;20516;-64
2022/01/18 06:37:01;;;;;;;9.27;5.43;;;;;;;;;;6131404;28;20231;-63
2022/01/18 06:40:22;;;;;;;12.43;4.50;;;;;;;;;;6126812;28;20228;-64
2022/01/18 06:43:43;;;;;;;14.00;5.60;;;;;;;;;;6127624;28;20259;-63
2022/01/18 06:47:03;;;;;;;16.20;6.37;;;;;;;;;;6131537;28;20852;-62
2022/01/18 06:50:24;;;;;;;13.00;5.37;;;;;;;;;;6126571;28;20643;-64
2022/01/18 06:53:47;;;;;;;17.17;7.90;;;;;;;;;;6126971;28;20231;-63
2022/01/18 06:57:08;;;;;;;12.00;6.10;;;;;;;;;;6125774;28;20239;-64
2022/01/18 07:00:28;;;;;;;17.93;7.57;;;;;;;;;;6132632;28;20240;-64
2022/01/18 07:03:49;;;;;;;18.27;6.70;;;;;;;;;;6126904;28;20310;-63
2022/01/18 07:07:10;;;;;;;23.40;6.83;;;;;;;;;;6127533;28;20231;-65
2022/01/18 07:10:32;;;;;;;18.37;6.50;;;;;;;;;;6127678;28;20255;-64
2022/01/18 07:13:52;;;;;;;22.73;8.63;;;;;;;;;;6128290;28;20255;-63
2022/01/18 07:17:13;;;;;;;23.97;8.10;;;;;;;;;;6115150;28;20236;-63
2022/01/18 07:20:34;;;;;;;20.17;6.90;;;;;;;;;;6123376;28;20614;-64
2022/01/18 07:24:03;;;;;;;22.90;6.87;;;;;;;;;;6125160;28;20239;-64
2022/01/18 07:27:25;;;;;;;22.43;8.07;;;;;;;;;;6128756;28;20535;-64
2022/01/18 07:30:46;;;;;;;27.50;9.27;;;;;;;;;;6126844;28;20259;-63
2022/01/18 07:34:07;;;;;;;14.53;5.20;;;;;;;;;;6128947;28;20235;-64
2022/01/18 07:37:27;;;;;;;11.80;5.77;;;;;;;;;;6125180;28;20236;-63
2022/01/18 07:40:49;;;;;;;20.50;6.83;;;;;;;;;;6127322;28;20686;-64
2022/01/18 07:44:11;;;;;;;17.97;5.97;;;;;;;;;;6125589;28;20816;-64
2022/01/18 07:47:32;;;;;;;14.43;5.30;;;;;;;;;;6130651;28;20239;-63
2022/01/18 07:50:53;;;;;;;17.10;5.63;;;;;;;;;;6130826;28;21336;-63
2022/01/18 07:54:14;;;;;;;17.17;5.20;;;;;;;;;;6127713;28;20593;-62
2022/01/18 07:57:37;;;;;;;17.20;5.37;;;;;;;;;;6127425;28;20240;-62
2022/01/18 08:01:00;;;;;;;21.77;6.93;;;;;;;;;;6132735;28;20235;-64
2022/01/18 08:04:20;;;;;;;18.03;5.73;;;;;;;;;;6122408;28;20315;-63
2022/01/18 08:07:41;;;;;;;23.53;5.83;;;;;;;;;;6128491;28;20227;-63
2022/01/18 08:11:01;;;;;;;16.80;5.30;;;;;;;;;;6129127;28;20254;-64
2022/01/18 08:14:24;;;;;;;18.37;6.17;;;;;;;;;;6110639;28;20229;-63
2022/01/18 08:17:48;;;;;;;23.10;7.33;;;;;;;;;;6112535;28;20231;-62
2022/01/18 08:21:08;;;;;;;17.53;5.73;;;;;;;;;;6135410;28;20231;-63
2022/01/18 08:24:29;;;;;;;23.87;8.03;;;;;;;;;;6127830;28;20240;-63
2022/01/18 08:27:50;;;;;;;21.97;7.53;;;;;;;;;;6127423;28;20227;-64
2022/01/18 08:31:10;;;;;;;25.13;6.30;;;;;;;;;;6130671;28;20231;-62
2022/01/18 08:34:32;;;;;;;23.80;7.03;;;;;;;;;;6121157;28;20511;-66
2022/01/18 08:37:53;;;;;;;20.30;6.20;;;;;;;;;;6131058;28;20239;-65
2022/01/18 08:41:13;;;;;;;29.07;9.07;;;;;;;;;;6131280;28;20338;-64
2022/01/18 08:44:35;;;;;;;20.93;6.37;;;;;;;;;;6129190;28;20239;-65
2022/01/18 08:47:55;;;;;;;21.87;8.53;;;;;;;;;;6124844;28;20334;-65
2022/01/18 08:51:18;;;;;;;20.50;7.10;;;;;;;;;;6120295;28;20235;-64
2022/01/18 08:54:39;;;;;;;22.47;7.53;;;;;;;;;;6125349;28;20234;-64
2022/01/18 08:57:59;;;;;;;23.27;7.57;;;;;;;;;;6135619;28;20316;-65
2022/01/18 09:01:20;;;;;;;20.03;6.93;;;;;;;;;;6128879;28;20242;-65
2022/01/18 09:04:40;;;;;;;21.87;5.83;;;;;;;;;;6132828;28;20231;-64
2022/01/18 09:08:06;;;;;;;21.90;6.43;;;;;;;;;;6137883;28;20235;-64
2022/01/18 09:11:29;;;;;;;18.27;4.97;;;;;;;;;;6131158;28;20680;-65
2022/01/18 09:14:49;;;;;;;24.10;6.70;;;;;;;;;;6133441;28;20766;-64
2022/01/18 09:18:10;;;;;;;21.03;5.03;;;;;;;;;;6136375;28;20503;-66
2022/01/18 09:21:32;;;;;;;23.73;7.03;;;;;;;;;;6135203;28;20970;-65
2022/01/18 09:24:54;;;;;;;16.63;5.10;;;;;;;;;;6131483;28;20234;-65
2022/01/18 09:28:14;;;;;;;21.37;6.03;;;;;;;;;;6130004;28;20232;-65
2022/01/18 09:31:36;;;;;;;12.93;4.30;;;;;;;;;;6127344;28;20247;-64
2022/01/18 09:34:56;;;;;;;13.67;5.57;;;;;;;;;;6124351;28;20235;-63
2022/01/18 09:38:17;;;;;;;15.07;5.40;;;;;;;;;;6127074;28;20236;-64
2022/01/18 09:41:42;;;;;;;19.83;6.77;;;;;;;;;;6126336;28;20850;-65
2022/01/18 09:45:04;;;;;;;16.47;5.83;;;;;;;;;;6128883;28;20235;-65
2022/01/18 09:48:25;;;;;;;21.10;6.13;;;;;;;;;;6129998;28;20215;-64
2022/01/18 09:51:46;;;;;;;18.07;5.50;;;;;;;;;;6133430;28;20597;-65
2022/01/18 09:55:08;;;;;;;23.53;6.10;;;;;;;;;;6118256;28;20263;-65
2022/01/18 09:58:30;;;;;;;16.90;5.07;;;;;;;;;;6125782;28;20314;-65
2022/01/18 10:01:51;;;;;;;9.50;3.73;;;;;;;;;;6125364;28;20231;-63
2022/01/18 10:05:18;;;;;;;21.07;7.03;;;;;;;;;;6080394;28;20231;-64
2022/01/18 10:08:40;;;;;;;17.27;5.63;;;;;;;;;;6124360;28;20231;-65
2022/01/18 10:12:01;;;;;;;15.60;5.53;;;;;;;;;;6121802;28;20584;-63
2022/01/18 10:15:23;;;;;;;18.07;5.70;;;;;;;;;;6125528;28;20223;-63
2022/01/18 10:18:46;;;;;;;13.80;4.67;;;;;;;;;;6122827;28;20629;-64
2022/01/18 10:22:08;;;;;;;13.63;4.97;;;;;;;;;;6114581;28;20234;-64
2022/01/18 10:25:29;;;;;;;15.90;5.53;;;;;;;;;;6124895;28;20504;-66
2022/01/18 10:28:59;;;;;;;14.60;4.07;;;;;;;;;;6129028;28;20225;-66
2022/01/18 10:32:28;;;;;;;13.87;4.63;;;;;;;;;;6123670;28;20254;-64
2022/01/18 10:36:09;;;;;;;17.70;5.43;;;;;;;;;;6128633;28;20233;-64
2022/01/18 10:39:31;;;;;;;10.97;3.93;;;;;;;;;;6118958;28;20735;-64
2022/01/18 10:42:53;;;;;;;15.83;5.17;;;;;;;;;;6116567;28;20247;-65
2022/01/18 10:46:15;;;;;;;17.00;3.50;;;;;;;;;;6123649;28;20833;-64
2022/01/18 10:49:40;;;;;;;9.77;3.53;;;;;;;;;;6120708;28;20239;-64
2022/01/18 10:53:10;;;;;;;14.60;4.33;;;;;;;;;;6119288;28;20255;-65
2022/01/18 10:56:39;;;;;;;8.87;3.37;;;;;;;;;;6127117;28;20310;-65
2022/01/18 11:00:04;;;;;;;15.93;4.43;;;;;;;;;;6122257;28;20275;-65
2022/01/18 11:03:26;;;;;;;13.63;5.10;;;;;;;;;;6116889;28;20223;-69
2022/01/18 11:06:57;;;;;;;14.73;3.93;;;;;;;;;;6116489;28;20905;-63
2022/01/18 11:10:18;;;;;;;9.40;2.47;;;;;;;;;;6123901;28;20231;-65
2022/01/18 11:13:45;;;;;;;12.00;4.43;;;;;;;;;;6124708;28;20235;-64
2022/01/18 11:17:07;;;;;;;10.07;2.97;;;;;;;;;;6128363;28;20239;-64
2022/01/18 11:20:28;;;;;;;9.23;2.90;;;;;;;;;;6130792;28;20234;-65
2022/01/18 11:23:51;;;;;;;13.87;4.07;;;;;;;;;;6126788;28;20242;-66
2022/01/18 11:27:14;;;;;;;9.73;3.13;;;;;;;;;;6126034;28;20227;-65
2022/01/18 11:30:36;;;;;;;8.20;2.83;;;;;;;;;;6125109;28;20730;-66
2022/01/18 11:33:59;;;;;;;13.60;4.03;;;;;;;;;;6131119;28;20235;-66
2022/01/18 11:37:26;;;;;;;10.20;2.57;;;;;;;;;;6129341;28;20228;-65
2022/01/18 11:40:49;;;;;;;12.03;4.07;;;;;;;;;;6120598;28;20855;-65
2022/01/18 11:44:14;;;;;;;7.30;3.17;;;;;;;;;;6129334;28;20606;-66
2022/01/18 11:47:34;;;;;;;10.87;3.27;;;;;;;;;;6132265;28;20227;-67
2022/01/18 11:51:01;;;;;;;16.13;4.60;;;;;;;;;;6128988;28;20291;-67
2022/01/18 11:54:26;;;;;;;11.40;3.07;;;;;;;;;;6139156;28;20215;-64
2022/01/18 11:57:48;;;;;;;10.63;3.33;;;;;;;;;;6142159;28;20231;-64
2022/01/18 12:01:10;;;;;;;13.47;4.70;;;;;;;;;;6136111;28;20227;-65
2022/01/18 12:04:54;;;;;;;9.93;2.77;;;;;;;;;;6136752;28;20605;-66
2022/01/18 12:08:29;;;;;;;7.97;2.60;;;;;;;;;;6135035;28;20228;-65
2022/01/18 12:11:50;;;;;;;5.37;2.47;;;;;;;;;;6140565;28;20592;-65
2022/01/18 12:15:26;;;;;;;6.27;2.33;;;;;;;;;;6138677;28;20231;-66
2022/01/18 12:18:52;;;;;;;6.37;2.33;;;;;;;;;;6135740;28;20617;-65
2022/01/18 12:22:13;;;;;;;10.07;2.20;;;;;;;;;;6138451;28;20226;-66
2022/01/18 12:25:36;;;;;;;8.60;2.73;;;;;;;;;;6142499;28;20541;-66
2022/01/18 12:29:20;;;;;;;7.13;2.60;;;;;;;;;;6129130;28;20227;-65
2022/01/18 12:32:56;;;;;;;6.50;2.57;;;;;;;;;;6136116;28;20859;-66
2022/01/18 12:36:28;;;;;;;5.73;2.50;;;;;;;;;;6126396;28;20235;-64
2022/01/18 12:40:05;;;;;;;7.90;2.10;;;;;;;;;;6136228;28;20231;-64
2022/01/18 12:47:03;;;;;;;7.53;2.17;;;;;;;;;;6143606;28;20325;-65
2022/01/18 12:50:25;;;;;;;3.47;2.27;;;;;;;;;;6135756;28;20246;-65
2022/01/18 12:53:47;;;;;;;5.97;2.60;;;;;;;;;;6140680;28;20243;-65
2022/01/18 12:57:11;;;;;;;6.73;2.50;;;;;;;;;;6137529;28;20236;-66
2022/01/18 13:00:36;;;;;;;5.57;2.63;;;;;;;;;;6135126;28;20622;-64
2022/01/18 13:03:56;;;;;;;7.77;3.27;;;;;;;;;;6131696;28;20247;-65
2022/01/18 13:07:17;;;;;;;6.37;2.13;;;;;;;;;;6119879;28;20231;-63
2022/01/18 13:10:40;;;;;;;6.63;1.97;;;;;;;;;;6142356;28;20228;-64
2022/01/18 13:14:04;;;;;;;3.77;1.50;;;;;;;;;;6128666;28;20231;-65
2022/01/18 13:25:05;;;;;;;2.60;1.90;;;;;;;;;;6125983;28;20230;-65
2022/01/18 13:28:33;;;;;;;4.53;3.37;;;;;;;;;;6136168;28;20274;-65
2022/01/18 13:32:02;;;;;;;3.73;2.30;;;;;;;;;;6135339;28;20238;-65
2022/01/18 13:35:24;;;;;;;5.17;2.27;;;;;;;;;;6127888;28;20243;-64
2022/01/18 13:38:45;;;;;;;3.50;2.17;;;;;;;;;;6132691;28;20232;-65
2022/01/18 13:42:06;;;;;;;3.37;1.63;;;;;;;;;;6112032;28;20232;-64
2022/01/18 13:45:29;;;;;;;2.10;1.70;;;;;;;;;;6125223;28;20514;-64
2022/01/18 13:48:49;;;;;;;3.27;2.27;;;;;;;;;;6131485;28;20263;-65
2022/01/18 13:52:11;;;;;;;5.33;2.67;;;;;;;;;;6128926;28;20227;-65
2022/01/18 13:55:32;;;;;;;6.20;1.93;;;;;;;;;;6133653;28;20938;-63
2022/01/18 13:58:59;;;;;;;4.17;2.97;;;;;;;;;;6131209;28;20231;-64
2022/01/18 14:02:22;;;;;;;3.50;2.43;;;;;;;;;;6127360;28;20319;-63
2022/01/18 14:05:47;;;;;;;5.57;3.07;;;;;;;;;;6130979;28;20244;-65
2022/01/18 14:09:09;;;;;;;4.63;2.80;;;;;;;;;;6124962;28;20259;-64
2022/01/18 14:12:30;;;;;;;2.37;1.97;;;;;;;;;;6134791;28;20228;-65
2022/01/18 14:15:50;;;;;;;5.47;2.43;;;;;;;;;;6131848;28;20235;-64
2022/01/18 14:19:12;;;;;;;5.30;2.70;;;;;;;;;;6127352;28;20231;-64
2022/01/18 14:22:35;;;;;;;5.30;2.50;;;;;;;;;;6131397;28;20330;-65
2022/01/18 14:25:55;;;;;;;5.77;2.83;;;;;;;;;;6129773;28;20496;-65
2022/01/18 14:29:16;;;;;;;3.27;2.97;;;;;;;;;;6133482;28;20948;-65
2022/01/18 14:32:39;;;;;;;6.73;2.43;;;;;;;;;;6121444;28;20235;-65
2022/01/18 14:36:01;;;;;;;4.80;3.37;;;;;;;;;;6130705;28;20239;-65
2022/01/18 14:39:22;;;;;;;3.23;2.90;;;;;;;;;;6131646;28;20231;-65
2022/01/18 14:42:46;;;;;;;4.57;2.97;;;;;;;;;;6125016;28;20230;-65
2022/01/18 14:46:21;;;;;;;5.27;3.73;;;;;;;;;;6123117;28;20236;-65
2022/01/18 14:49:42;;;;;;;4.17;3.10;;;;;;;;;;6135349;28;20337;-64
2022/01/18 14:53:05;;;;;;;4.07;3.70;;;;;;;;;;6132680;28;20242;-64
2022/01/18 14:56:26;;;;;;;6.00;4.40;;;;;;;;;;6130997;28;20243;-64
2022/01/18 14:59:47;;;;;;;4.83;3.87;;;;;;;;;;6134548;28;20231;-64
2022/01/18 15:03:08;;;;;;;4.40;4.00;;;;;;;;;;6121799;28;20236;-64
2022/01/18 15:06:28;;;;;;;10.43;4.10;;;;;;;;;;6118294;28;20232;-65
2022/01/18 15:09:50;;;;;;;4.33;3.40;;;;;;;;;;6132201;28;20520;-65
2022/01/18 15:13:11;;;;;;;3.70;3.27;;;;;;;;;;6135974;28;20228;-64
2022/01/18 15:16:31;;;;;;;3.37;3.17;;;;;;;;;;6132401;28;20318;-63
2022/01/18 15:19:52;;;;;;;6.33;3.73;;;;;;;;;;6131420;28;20228;-65
2022/01/18 15:23:12;;;;;;;3.60;3.00;;;;;;;;;;6136146;28;20633;-65
2022/01/18 15:26:34;;;;;;;4.83;3.50;;;;;;;;;;6124405;28;20716;-64
2022/01/18 15:29:54;;;;;;;3.57;3.27;;;;;;;;;;6124138;28;20601;-65
2022/01/18 15:33:15;;;;;;;3.50;3.20;;;;;;;;;;6138474;28;20231;-64
2022/01/18 15:36:36;;;;;;;3.13;2.83;;;;;;;;;;6122552;28;20235;-64
2022/01/18 15:40:01;;;;;;;3.30;3.00;;;;;;;;;;6127061;28;20235;-67
2022/01/18 15:43:24;;;;;;;2.80;2.60;;;;;;;;;;6134266;28;20240;-67
2022/01/18 15:46:45;;;;;;;4.07;3.23;;;;;;;;;;6128930;28;20235;-66
2022/01/18 15:50:06;;;;;;;3.90;3.53;;;;;;;;;;6130136;28;20318;-67
2022/01/18 15:53:26;;;;;;;4.70;3.17;;;;;;;;;;6115321;28;20232;-67
2022/01/18 15:56:47;;;;;;;7.27;4.23;;;;;;;;;;6134827;28;20219;-68
2022/01/18 16:00:10;;;;;;;5.13;4.73;;;;;;;;;;6132507;28;20314;-67
2022/01/18 16:03:30;;;;;;;4.93;3.50;;;;;;;;;;6134713;28;20223;-68
2022/01/18 16:06:51;;;;;;;3.87;3.40;;;;;;;;;;6135198;28;20321;-67
2022/01/18 16:10:11;;;;;;;5.40;3.97;;;;;;;;;;6130511;28;20251;-68
2022/01/18 16:13:32;;;;;;;3.63;3.33;;;;;;;;;;6125222;28;20243;-68
2022/01/18 16:16:54;;;;;;;6.13;4.10;;;;;;;;;;6127179;28;20230;-68
2022/01/18 16:20:14;;;;;;;4.30;3.90;;;;;;;;;;6127274;28;20503;-66
2022/01/18 16:23:35;;;;;;;4.87;4.47;;;;;;;;;;6121355;28;20266;-63
2022/01/18 16:26:56;;;;;;;5.53;4.17;;;;;;;;;;6106953;28;20232;-64
2022/01/18 16:30:16;;;;;;;5.10;4.60;;;;;;;;;;6122265;28;20255;-64
2022/01/18 16:33:38;;;;;;;8.37;5.47;;;;;;;;;;6132468;28;20601;-64
2022/01/18 16:36:58;;;;;;;8.67;5.30;;;;;;;;;;6132049;28;20232;-64
2022/01/18 16:43:59;;;;;;;6.87;6.30;;;;;;;;;;6092269;28;20228;-65
2022/01/18 16:47:20;;;;;;;7.13;5.23;;;;;;;;;;6095535;28;20335;-66
2022/01/18 16:50:42;;;;;;;6.50;4.87;;;;;;;;;;6098030;29;20232;-65
2022/01/18 16:54:02;;;;;;;6.80;6.03;;;;;;;;;;6094300;29;20543;-65
2022/01/18 16:57:23;;;;;;;5.93;5.33;;;;;;;;;;6091060;28;20232;-64
2022/01/18 17:00:44;;;;;;;5.10;4.60;;;;;;;;;;6094403;28;20642;-65
2022/01/18 17:04:05;;;;;;;5.63;5.07;;;;;;;;;;6087758;28;20237;-65
2022/01/18 17:07:27;;;;;;;7.13;6.40;;;;;;;;;;6095799;28;20696;-64
2022/01/18 17:10:48;;;;;;;5.60;5.10;;;;;;;;;;6091732;29;20248;-64
2022/01/18 17:14:08;;;;;;;7.23;5.53;;;;;;;;;;6091967;29;20300;-63
2022/01/18 17:17:29;;;;;;;10.53;9.53;;;;;;;;;;6094978;28;20240;-65
2022/01/18 17:20:50;;;;;;;7.53;6.83;;;;;;;;;;6081273;28;20224;-65
2022/01/18 17:24:12;;;;;;;6.17;5.67;;;;;;;;;;6104633;29;20229;-66
2022/01/18 17:27:33;;;;;;;11.37;7.17;;;;;;;;;;6093184;28;20240;-66
2022/01/18 17:30:53;;;;;;;5.90;5.30;;;;;;;;;;6098442;28;20343;-65
2022/01/18 17:34:14;;;;;;;6.40;5.70;;;;;;;;;;6097381;28;20234;-65
2022/01/18 17:37:34;;;;;;;6.53;5.93;;;;;;;;;;6094343;29;20561;-66
2022/01/18 17:40:58;;;;;;;5.37;4.93;;;;;;;;;;6093436;28;20307;-66
2022/01/18 17:44:18;;;;;;;6.30;5.73;;;;;;;;;;6091341;29;20235;-65
2022/01/18 17:47:39;;;;;;;6.57;5.93;;;;;;;;;;6091944;28;20247;-66
2022/01/18 17:51:00;;;;;;;7.73;6.67;;;;;;;;;;6080220;29;21947;-64
2022/01/18 17:54:20;;;;;;;9.47;8.40;;;;;;;;;;6082200;28;20237;-63
2022/01/18 17:57:42;;;;;;;11.30;8.53;;;;;;;;;;6078617;29;20251;-64
2022/01/18 18:01:03;;;;;;;8.87;8.13;;;;;;;;;;6094566;28;20232;-65
2022/01/18 18:04:24;;;;;;;8.73;7.90;;;;;;;;;;6081918;29;20377;-65
2022/01/18 18:07:46;;;;;;;10.93;8.33;;;;;;;;;;6083009;29;20259;-64
2022/01/18 18:11:06;;;;;;;9.67;8.13;;;;;;;;;;6078275;29;20298;-65
2022/01/18 18:14:29;;;;;;;9.40;7.43;;;;;;;;;;6090179;28;20303;-64
2022/01/18 18:17:50;;;;;;;8.70;7.57;;;;;;;;;;6097619;29;20232;-65
2022/01/18 18:21:10;;;;;;;8.67;7.87;;;;;;;;;;6105525;28;20529;-64
2022/01/18 18:24:31;;;;;;;8.93;7.80;;;;;;;;;;6099464;28;20224;-64
2022/01/18 18:27:52;;;;;;;8.73;7.93;;;;;;;;;;6093853;28;20233;-64
2022/01/18 18:31:14;;;;;;;9.30;8.23;;;;;;;;;;6088165;28;20240;-65
2022/01/18 18:34:34;;;;;;;9.03;7.77;;;;;;;;;;6076998;29;21104;-64
2022/01/18 18:37:56;;;;;;;13.63;9.10;;;;;;;;;;6085833;29;20533;-65
2022/01/18 18:41:28;;;;;;;12.87;10.07;;;;;;;;;;6087493;29;20523;-64
2022/01/18 18:44:49;;;;;;;10.13;8.07;;;;;;;;;;6088438;29;20228;-64
2022/01/18 18:48:11;;;;;;;9.37;8.33;;;;;;;;;;6075231;28;20566;-64
2022/01/18 18:51:32;;;;;;;8.93;7.77;;;;;;;;;;6075422;28;20240;-65
2022/01/18 18:54:52;;;;;;;8.43;6.80;;;;;;;;;;6074215;28;20705;-64
2022/01/18 18:58:17;;;;;;;8.17;6.93;;;;;;;;;;6089826;28;20235;-65
2022/01/18 19:01:44;;;;;;;8.07;6.30;;;;;;;;;;6085251;29;20325;-65
2022/01/18 19:05:06;;;;;;;8.50;6.80;;;;;;;;;;6083630;28;22463;-64
2022/01/18 19:08:28;;;;;;;9.03;7.30;;;;;;;;;;6088005;28;20236;-64
2022/01/18 19:11:49;;;;;;;9.27;6.50;;;;;;;;;;6084025;28;20236;-64
2022/01/18 19:15:12;;;;;;;9.37;6.77;;;;;;;;;;6075097;29;20233;-63
2022/01/18 19:18:34;;;;;;;7.50;5.47;;;;;;;;;;6094295;29;20232;-65
2022/01/18 19:21:57;;;;;;;12.97;7.03;;;;;;;;;;6080600;28;20233;-64
2022/01/18 19:25:17;;;;;;;8.90;6.13;;;;;;;;;;6082431;28;20607;-65
2022/01/18 19:28:39;;;;;;;8.23;6.73;;;;;;;;;;6068729;29;20245;-68
2022/01/18 19:31:59;;;;;;;8.07;6.60;;;;;;;;;;6069083;29;20237;-64
2022/01/18 19:35:20;;;;;;;10.87;6.47;;;;;;;;;;6079666;29;20249;-65
2022/01/18 19:38:42;;;;;;;11.57;6.13;;;;;;;;;;6077805;29;20237;-66
2022/01/18 19:42:05;;;;;;;7.47;5.70;;;;;;;;;;6079149;29;20243;-64
2022/01/18 19:45:27;;;;;;;9.07;6.53;;;;;;;;;;6089345;28;20631;-64
2022/01/18 19:48:48;;;;;;;8.57;6.27;;;;;;;;;;6089938;28;20240;-64
2022/01/18 19:52:08;;;;;;;8.67;6.47;;;;;;;;;;6094535;29;20240;-63
2022/01/18 19:55:31;;;;;;;6.73;6.00;;;;;;;;;;6087940;28;20228;-65
2022/01/18 19:58:51;;;;;;;6.63;5.70;;;;;;;;;;6089810;28;20237;-65
2022/01/18 20:02:12;;;;;;;8.30;5.90;;;;;;;;;;6090278;28;20231;-64
2022/01/18 20:05:34;;;;;;;7.53;6.63;;;;;;;;;;6085821;28;20277;-65
2022/01/18 20:08:55;;;;;;;10.63;6.67;;;;;;;;;;6093199;29;20236;-65
2022/01/18 20:12:17;;;;;;;6.83;5.57;;;;;;;;;;6075590;29;20229;-64
2022/01/18 20:15:38;;;;;;;7.30;6.43;;;;;;;;;;6090623;29;20236;-65
2022/01/18 20:18:58;;;;;;;7.97;6.43;;;;;;;;;;6087723;29;20709;-64
2022/01/18 20:22:18;;;;;;;11.87;6.50;;;;;;;;;;6074124;29;20221;-66
2022/01/18 20:25:39;;;;;;;10.53;6.33;;;;;;;;;;6070201;29;20233;-65
2022/01/18 20:29:01;;;;;;;9.10;6.57;;;;;;;;;;6087791;29;20413;-64
2022/01/18 20:32:22;;;;;;;9.30;6.07;;;;;;;;;;6086104;29;20309;-64
2022/01/18 20:35:42;;;;;;;9.13;6.07;;;;;;;;;;6079635;29;20232;-65
2022/01/18 20:39:03;;;;;;;8.87;6.70;;;;;;;;;;6077942;29;20229;-64
2022/01/18 20:46:03;;;;;;;9.63;6.43;;;;;;;;;;6093748;28;20232;-65
2022/01/18 20:49:24;;;;;;;8.40;7.33;;;;;;;;;;6085383;29;20270;-64
2022/01/18 20:52:45;;;;;;;11.03;6.90;;;;;;;;;;6065023;29;20708;-64
2022/01/18 20:56:06;;;;;;;8.70;7.00;;;;;;;;;;6091478;28;20260;-64
2022/01/18 20:59:27;;;;;;;11.63;6.40;;;;;;;;;;6091591;29;20605;-63
2022/01/18 21:02:49;;;;;;;9.87;6.57;;;;;;;;;;6073049;29;20229;-64
2022/01/18 21:06:10;;;;;;;7.93;7.13;;;;;;;;;;6085751;29;20554;-63
2022/01/18 21:09:30;;;;;;;10.13;7.20;;;;;;;;;;6084647;28;20255;-64